Time;durP1;ratioP1;P1;durP2;ratioP2;P2;SDS_P1;SDS_P2;PMS_P1;PMS_P2;Temp;Humidity;BMP_temperature;BMP_pressure;BME280_temperature;BME280_humidity;BME280_pressure;Samples;Min_cycle;Max_cycle;Signal;HPM_P1;HPM_P2
2023/06/13 00:00:13;;;;;;;;;;;;;;;20.43;54.52;-18576.41;5043112;28;19987;-84
2023/06/13 00:02:39;;;;;;;;;;;;;;;20.41;54.64;-18575.84;5044258;28;19927;-84
2023/06/13 00:05:10;;;;;;;;;;;;;;;20.36;54.71;-18574.47;5027212;28;20015;-83
2023/06/13 00:07:37;;;;;;;;;;;;;;;20.37;54.15;-18574.75;5040837;28;19925;-84
2023/06/13 00:10:05;;;;;;;;;;;;;;;20.29;54.76;-18572.72;5041753;28;19921;-84
2023/06/13 00:12:32;;;;;;;;;;;;;;;20.33;54.92;-18573.66;5067044;28;19924;-84
2023/06/13 00:15:01;;;;;;;;;;;;;;;20.35;54.61;-18574.22;5039666;28;19921;-85
2023/06/13 00:17:26;;;;;;;;;;;;;;;20.18;55.63;-18569.72;5058851;28;19939;-84
2023/06/13 00:19:54;;;;;;;;;;;;;;;20.11;56.54;-18567.69;5039646;28;19921;-84
2023/06/13 00:22:20;;;;;;;;;;;;;;;20.05;57.73;-18566.31;5060982;28;20520;-84
2023/06/13 00:24:46;;;;;;;;;;;;;;;20.05;58.22;-18566.31;5060195;28;20386;-84
2023/06/13 00:27:11;;;;;;;;;;;;;;;19.96;58.14;-18563.72;5060659;28;19933;-84
2023/06/13 00:29:36;;;;;;;;;;;;;;;19.99;58.48;-18564.69;5058683;28;19920;-85
2023/06/13 00:32:01;;;;;;;;;;;;;;;19.96;59.62;-18563.88;5032774;28;19920;-84
2023/06/13 00:34:27;;;;;;;;;;;;;;;19.81;60.77;-18559.91;5061449;28;19921;-84
2023/06/13 00:36:53;;;;;;;;;;;;;;;19.82;61.16;-18560.19;5052035;28;19975;-84
2023/06/13 00:39:19;;;;;;;;;;;;;;;19.71;61.76;-18557.06;5064349;28;19966;-84
2023/06/13 00:41:44;;;;;;;;;;;;;;;19.63;62.05;-18554.88;5058600;28;19920;-84
2023/06/13 00:44:10;;;;;;;;;;;;;;;19.59;62.88;-18554.06;5066871;28;20354;-86
2023/06/13 00:46:35;;;;;;;;;;;;;;;19.41;64.65;-18549.03;5065597;28;19928;-85
2023/06/13 00:49:02;;;;;;;;;;;;;;;19.44;64.10;-18549.84;5058747;28;19925;-84
2023/06/13 00:51:28;;;;;;;;;;;;;;;19.46;63.12;-18550.53;5054752;28;19920;-83
2023/06/13 00:53:55;;;;;;;;;;;;;;;19.33;64.47;-18546.97;5061514;28;20232;-84
2023/06/13 00:56:22;;;;;;;;;;;;;;;19.26;65.17;-18545.22;5061896;28;19924;-85
2023/06/13 00:58:48;;;;;;;;;;;;;;;19.26;66.61;-18545.22;5060729;28;19943;-84
2023/06/13 01:01:19;;;;;;;;;;;;;;;19.16;67.87;-18542.63;5077852;28;19911;-84
2023/06/13 01:03:45;;;;;;;;;;;;;;;19.16;68.11;-18542.47;5059954;28;19925;-84
2023/06/13 01:06:10;;;;;;;;;;;;;;;19.02;68.15;-18538.81;5063984;28;20574;-84
2023/06/13 01:08:37;;;;;;;;;;;;;;;18.94;69.19;-18536.63;5072239;28;19928;-84
2023/06/13 01:11:06;;;;;;;;;;;;;;;18.89;69.33;-18535.25;5072961;28;20440;-84
2023/06/13 01:13:35;;;;;;;;;;;;;;;18.89;68.70;-18535.41;5057096;28;19920;-84
2023/06/13 01:16:09;;;;;;;;;;;;;;;18.78;69.57;-18532.25;5072255;28;19921;-84
2023/06/13 01:18:38;;;;;;;;;;;;;;;18.71;69.80;-18530.47;5072347;28;19955;-84
2023/06/13 01:21:04;;;;;;;;;;;;;;;18.71;69.74;-18530.47;5067943;28;20016;-84
2023/06/13 01:23:36;;;;;;;;;;;;;;;18.70;68.64;-18530.34;5070121;28;19920;-84
2023/06/13 01:26:02;;;;;;;;;;;;;;;18.79;67.02;-18532.66;5075314;28;20015;-84
2023/06/13 01:28:32;;;;;;;;;;;;;;;18.77;66.89;-18532.00;5061360;28;19957;-84
2023/06/13 01:30:57;;;;;;;;;;;;;;;18.88;65.67;-18535.13;5064558;28;19940;-83
2023/06/13 01:33:23;;;;;;;;;;;;;;;18.86;65.71;-18534.56;5070886;28;19921;-84
2023/06/13 01:35:49;;;;;;;;;;;;;;;18.85;65.67;-18534.16;5064523;28;19928;-84
2023/06/13 01:38:14;;;;;;;;;;;;;;;18.90;65.11;-18535.53;5061710;28;19921;-84
2023/06/13 01:40:40;;;;;;;;;;;;;;;18.75;66.81;-18531.44;5066666;28;20385;-83
2023/06/13 01:43:05;;;;;;;;;;;;;;;18.80;67.36;-18532.94;5078285;28;19999;-85
2023/06/13 01:45:30;;;;;;;;;;;;;;;18.85;67.04;-18534.16;5071758;28;20316;-84
2023/06/13 01:47:58;;;;;;;;;;;;;;;18.77;68.35;-18532.00;5068770;28;19924;-84
2023/06/13 01:50:30;;;;;;;;;;;;;;;18.68;69.13;-18529.81;5065460;28;20300;-85
2023/06/13 01:53:09;;;;;;;;;;;;;;;18.64;69.55;-18528.56;5061906;28;19925;-84
2023/06/13 01:56:07;;;;;;;;;;;;;;;18.59;69.10;-18527.22;5055903;28;19983;-84
2023/06/13 01:58:51;;;;;;;;;;;;;;;18.56;70.12;-18526.53;5008794;28;19928;-84
2023/06/13 02:01:16;;;;;;;;;;;;;;;18.53;68.96;-18525.72;5052361;28;19931;-84
2023/06/13 02:03:42;;;;;;;;;;;;;;;18.54;69.50;-18525.97;5083238;28;19943;-84
2023/06/13 02:06:07;;;;;;;;;;;;;;;18.52;69.33;-18525.44;5083807;27;19951;-84
2023/06/13 02:08:33;;;;;;;;;;;;;;;18.59;68.27;-18527.22;5083574;28;19912;-85
2023/06/13 02:10:58;;;;;;;;;;;;;;;18.61;70.52;-18527.88;5078097;28;19912;-84
2023/06/13 02:13:24;;;;;;;;;;;;;;;18.29;71.57;-18519.31;5078490;28;19938;-84
2023/06/13 02:15:50;;;;;;;;;;;;;;;18.32;71.41;-18520.13;5060991;28;19924;-84
2023/06/13 02:18:15;;;;;;;;;;;;;;;18.40;70.97;-18522.16;5069216;28;20415;-84
2023/06/13 02:20:41;;;;;;;;;;;;;;;18.31;72.65;-18519.72;5069106;28;19931;-84
2023/06/13 02:23:06;;;;;;;;;;;;;;;18.22;72.78;-18517.53;5064765;28;20311;-84
2023/06/13 02:25:31;;;;;;;;;;;;;;;18.22;72.47;-18517.53;5063734;28;19932;-84
2023/06/13 02:27:57;;;;;;;;;;;;;;;18.20;71.50;-18516.97;5064144;28;20078;-84
2023/06/13 02:30:22;;;;;;;;;;;;;;;18.14;72.02;-18515.22;5059360;28;19944;-84
2023/06/13 02:32:50;;;;;;;;;;;;;;;18.22;71.97;-18517.53;5066965;28;19958;-84
2023/06/13 02:35:15;;;;;;;;;;;;;;;18.31;72.32;-18519.84;5070598;28;19958;-84
2023/06/13 02:37:41;;;;;;;;;;;;;;;18.22;71.96;-18517.41;5064595;28;19928;-84
2023/06/13 02:40:09;;;;;;;;;;;;;;;18.21;70.84;-18517.25;5069553;28;19946;-84
2023/06/13 02:42:34;;;;;;;;;;;;;;;18.22;69.80;-18517.53;5046825;28;19924;-84
2023/06/13 02:45:00;;;;;;;;;;;;;;;18.42;68.80;-18522.84;5064418;28;20069;-86
2023/06/13 02:47:25;;;;;;;;;;;;;;;18.43;68.84;-18522.97;5057434;28;19925;-84
2023/06/13 02:49:51;;;;;;;;;;;;;;;18.46;66.93;-18523.81;5042323;28;20430;-84
2023/06/13 02:52:16;;;;;;;;;;;;;;;18.45;66.51;-18523.53;5050301;28;20387;-84
2023/06/13 02:54:41;;;;;;;;;;;;;;;18.58;65.54;-18527.06;5051253;28;20018;-84
2023/06/13 02:57:09;;;;;;;;;;;;;;;18.35;68.29;-18520.94;5056668;28;19952;-84
2023/06/13 02:59:34;;;;;;;;;;;;;;;18.39;67.00;-18521.91;5057962;28;19920;-84
2023/06/13 03:01:59;;;;;;;;;;;;;;;18.29;67.90;-18519.16;5059833;28;20015;-83
2023/06/13 03:04:28;;;;;;;;;;;;;;;18.31;67.19;-18519.72;5051038;28;19928;-84
2023/06/13 03:06:53;;;;;;;;;;;;;;;18.37;66.13;-18521.47;5060683;28;19948;-83
2023/06/13 03:09:19;;;;;;;;;;;;;;;18.38;67.02;-18521.63;5061198;28;20011;-85
2023/06/13 03:11:44;;;;;;;;;;;;;;;18.39;66.58;-18521.91;5061133;28;19935;-84
2023/06/13 03:14:09;;;;;;;;;;;;;;;18.30;67.81;-18519.56;5054354;28;19920;-84
2023/06/13 03:16:35;;;;;;;;;;;;;;;18.34;67.34;-18520.66;5048383;28;19988;-85
2023/06/13 03:19:01;;;;;;;;;;;;;;;18.40;66.20;-18522.16;5037149;28;19927;-84
2023/06/13 03:21:26;;;;;;;;;;;;;;;18.32;68.17;-18519.97;5056960;28;19942;-84
2023/06/13 03:23:51;;;;;;;;;;;;;;;18.43;67.92;-18522.97;5057978;28;19932;-84
2023/06/13 03:26:16;;;;;;;;;;;;;;;18.25;67.88;-18518.34;5076079;28;19934;-87
2023/06/13 03:28:42;;;;;;;;;;;;;;;18.27;67.92;-18518.91;5069822;28;19966;-85
2023/06/13 03:31:07;;;;;;;;;;;;;;;18.26;67.56;-18518.63;5050303;28;19970;-84
2023/06/13 03:33:33;;;;;;;;;;;;;;;18.29;67.32;-18519.16;5061256;28;19921;-84
2023/06/13 03:35:58;;;;;;;;;;;;;;;18.24;68.78;-18518.06;5060604;28;20004;-84
2023/06/13 03:38:23;;;;;;;;;;;;;;;18.20;68.68;-18516.97;5066601;28;19928;-85
2023/06/13 03:40:48;;;;;;;;;;;;;;;18.21;69.60;-18517.25;5066708;28;19974;-84
2023/06/13 03:43:13;;;;;;;;;;;;;;;18.06;71.17;-18513.03;5062664;28;20015;-84
2023/06/13 03:45:39;;;;;;;;;;;;;;;17.92;72.32;-18509.47;5060675;28;20021;-84
2023/06/13 03:48:04;;;;;;;;;;;;;;;17.97;73.19;-18510.72;5065451;28;19932;-84
2023/06/13 03:50:29;;;;;;;;;;;;;;;18.06;71.06;-18513.16;5061466;28;19920;-84
2023/06/13 03:52:55;;;;;;;;;;;;;;;18.23;69.93;-18517.81;5060394;28;19929;-84
2023/06/13 03:55:21;;;;;;;;;;;;;;;18.34;69.38;-18520.53;5067940;28;19924;-84
2023/06/13 03:57:46;;;;;;;;;;;;;;;18.37;68.99;-18521.34;5062019;28;20054;-84
2023/06/13 04:00:11;;;;;;;;;;;;;;;18.37;70.86;-18521.34;5069801;28;20387;-84
2023/06/13 04:02:37;;;;;;;;;;;;;;;18.28;72.14;-18519.03;5068435;28;20221;-84
2023/06/13 04:05:02;;;;;;;;;;;;;;;18.17;71.27;-18516.03;5066640;28;20400;-84
2023/06/13 04:07:33;;;;;;;;;;;;;;;18.29;71.83;-18519.16;5066819;28;20298;-84
2023/06/13 04:09:59;;;;;;;;;;;;;;;18.17;72.70;-18516.03;5051798;28;19974;-84
2023/06/13 04:12:25;;;;;;;;;;;;;;;18.20;73.13;-18516.97;5060250;28;20176;-84
2023/06/13 04:14:50;;;;;;;;;;;;;;;18.27;72.07;-18518.75;5065044;28;19974;-85
2023/06/13 04:17:15;;;;;;;;;;;;;;;18.27;72.89;-18518.91;5066881;28;19924;-84
2023/06/13 04:19:40;;;;;;;;;;;;;;;18.22;72.92;-18517.41;5063019;28;19958;-84
2023/06/13 04:22:07;;;;;;;;;;;;;;;18.24;74.03;-18517.94;5062936;28;19936;-84
2023/06/13 04:24:32;;;;;;;;;;;;;;;18.25;73.98;-18518.34;5060657;28;20440;-84
2023/06/13 04:26:58;;;;;;;;;;;;;;;18.39;73.58;-18521.91;5066894;28;19952;-84
2023/06/13 04:29:25;;;;;;;;;;;;;;;18.57;72.13;-18526.81;5049366;28;19927;-84
2023/06/13 04:31:50;;;;;;;;;;;;;;;18.39;72.89;-18521.91;5066085;28;19921;-84
2023/06/13 04:34:18;;;;;;;;;;;;;;;18.57;72.43;-18526.81;5071276;28;19925;-83
2023/06/13 04:36:44;;;;;;;;;;;;;;;18.48;73.70;-18524.34;5066177;28;19927;-84
2023/06/13 04:39:10;;;;;;;;;;;;;;;18.40;74.37;-18522.31;5059592;28;19920;-84
2023/06/13 04:41:37;;;;;;;;;;;;;;;18.52;75.08;-18525.31;5058560;28;20406;-84
2023/06/13 04:44:09;;;;;;;;;;;;;;;18.49;74.53;-18524.75;5057327;28;19925;-84
2023/06/13 04:46:35;;;;;;;;;;;;;;;18.64;73.63;-18528.56;5062768;28;19928;-84
2023/06/13 04:49:04;;;;;;;;;;;;;;;18.62;74.04;-18528.03;5062258;28;20408;-85
2023/06/13 04:51:30;;;;;;;;;;;;;;;18.67;73.47;-18529.53;5065974;28;19943;-84
2023/06/13 04:53:57;;;;;;;;;;;;;;;18.86;73.22;-18534.44;5065175;28;20011;-84
2023/06/13 04:56:22;;;;;;;;;;;;;;;18.96;72.06;-18537.16;5063696;28;20017;-84
2023/06/13 04:58:48;;;;;;;;;;;;;;;19.17;70.91;-18542.88;5063362;28;20405;-84
2023/06/13 05:01:13;;;;;;;;;;;;;;;19.30;70.81;-18546.28;5062566;28;19925;-84
2023/06/13 05:03:40;;;;;;;;;;;;;;;19.33;69.84;-18546.97;5065441;28;20287;-83
2023/06/13 05:06:06;;;;;;;;;;;;;;;19.41;69.94;-18549.03;5058315;28;20345;-84
2023/06/13 05:08:31;;;;;;;;;;;;;;;19.21;71.79;-18543.84;5061615;28;19920;-83
2023/06/13 05:10:57;;;;;;;;;;;;;;;19.29;72.76;-18545.88;5054845;28;19925;-84
2023/06/13 05:13:22;;;;;;;;;;;;;;;19.41;72.28;-18549.16;5064495;28;19921;-84
2023/06/13 05:15:47;;;;;;;;;;;;;;;19.52;71.35;-18552.16;5057481;28;19928;-84
2023/06/13 05:18:13;;;;;;;;;;;;;;;19.70;70.13;-18556.78;5065482;28;20218;-83
2023/06/13 05:20:41;;;;;;;;;;;;;;;19.97;68.56;-18564.00;5042149;28;19920;-84
2023/06/13 05:23:07;;;;;;;;;;;;;;;19.90;67.54;-18562.22;5061193;28;19928;-84
2023/06/13 05:25:32;;;;;;;;;;;;;;;19.90;68.74;-18562.09;5059424;28;20010;-84
2023/06/13 05:27:58;;;;;;;;;;;;;;;20.06;68.67;-18566.59;5064405;28;20395;-84
2023/06/13 05:30:23;;;;;;;;;;;;;;;20.15;66.85;-18568.78;5063466;28;19932;-84
2023/06/13 05:32:48;;;;;;;;;;;;;;;20.23;66.92;-18571.09;5062890;28;19963;-84
2023/06/13 05:35:14;;;;;;;;;;;;;;;20.35;66.56;-18574.22;5057903;28;19920;-84
2023/06/13 05:37:39;;;;;;;;;;;;;;;20.46;64.56;-18577.22;5058931;28;20007;-84
2023/06/13 05:40:05;;;;;;;;;;;;;;;20.59;63.44;-18580.63;5055252;28;20019;-84
2023/06/13 05:42:31;;;;;;;;;;;;;;;20.58;63.85;-18580.34;5050053;28;20000;-84
2023/06/13 05:44:57;;;;;;;;;;;;;;;20.71;63.87;-18583.88;5055043;28;20419;-84
2023/06/13 05:47:22;;;;;;;;;;;;;;;20.77;63.96;-18585.38;5053953;28;19935;-85
2023/06/13 05:49:48;;;;;;;;;;;;;;;20.88;63.49;-18588.38;5053382;28;19921;-84
2023/06/13 05:52:13;;;;;;;;;;;;;;;21.06;63.59;-18593.00;5072013;28;19916;-84
2023/06/13 05:54:38;;;;;;;;;;;;;;;21.15;62.00;-18595.56;5076837;28;19927;-85
2023/06/13 05:57:03;;;;;;;;;;;;;;;21.29;61.60;-18599.09;5061371;28;19920;-85
2023/06/13 05:59:29;;;;;;;;;;;;;;;21.36;61.10;-18601.16;5052855;28;19960;-85
2023/06/13 06:01:54;;;;;;;;;;;;;;;21.36;60.40;-18601.16;5051554;28;20019;-85
2023/06/13 06:04:19;;;;;;;;;;;;;;;21.59;59.44;-18607.13;5056082;28;19924;-85
2023/06/13 06:06:45;;;;;;;;;;;;;;;21.67;58.32;-18609.31;5060682;28;20346;-84
2023/06/13 06:09:10;;;;;;;;;;;;;;;21.72;58.77;-18610.66;5043393;28;20298;-85
2023/06/13 06:11:36;;;;;;;;;;;;;;;21.76;57.14;-18611.75;5067380;28;19928;-85
2023/06/13 06:14:02;;;;;;;;;;;;;;;21.90;56.13;-18615.28;5056296;28;19944;-84
2023/06/13 06:16:27;;;;;;;;;;;;;;;22.05;56.54;-18619.50;5066957;28;19991;-85
2023/06/13 06:18:53;;;;;;;;;;;;;;;22.00;54.05;-18618.00;5057325;28;19921;-85
2023/06/13 06:21:19;;;;;;;;;;;;;;;22.21;55.25;-18623.72;5062343;28;19993;-84
2023/06/13 06:23:44;;;;;;;;;;;;;;;22.27;53.78;-18625.22;5058446;28;19920;-85
2023/06/13 06:26:10;;;;;;;;;;;;;;;22.40;53.31;-18628.59;5063240;28;20352;-84
2023/06/13 06:28:35;;;;;;;;;;;;;;;22.51;53.02;-18631.59;5064281;28;20102;-84
2023/06/13 06:31:00;;;;;;;;;;;;;;;22.60;52.27;-18634.03;5074207;28;20080;-84
2023/06/13 06:33:26;;;;;;;;;;;;;;;22.64;52.16;-18634.97;5086616;28;20244;-84
2023/06/13 06:35:52;;;;;;;;;;;;;;;22.85;52.38;-18640.56;5082655;28;19924;-84
2023/06/13 06:38:18;;;;;;;;;;;;;;;23.06;51.77;-18646.25;5065572;28;19987;-84
2023/06/13 06:40:43;;;;;;;;;;;;;;;23.18;50.43;-18649.50;5075673;28;19913;-85
2023/06/13 06:43:08;;;;;;;;;;;;;;;23.22;49.06;-18650.31;5075946;28;19930;-85
2023/06/13 06:45:33;;;;;;;;;;;;;;;23.29;48.92;-18652.22;5082119;28;19912;-84
2023/06/13 06:47:59;;;;;;;;;;;;;;;23.15;50.14;-18648.69;5076980;28;20063;-85
2023/06/13 06:50:24;;;;;;;;;;;;;;;23.31;49.98;-18652.75;5081530;28;19924;-86
2023/06/13 06:52:49;;;;;;;;;;;;;;;23.46;49.89;-18656.84;5059497;28;19928;-84
2023/06/13 06:55:14;;;;;;;;;;;;;;;23.51;48.08;-18658.19;5061241;28;19925;-84
2023/06/13 06:57:39;;;;;;;;;;;;;;;23.59;47.37;-18660.34;5056428;28;20110;-84
2023/06/13 07:00:06;;;;;;;;;;;;;;;23.63;46.48;-18661.44;5054229;28;19921;-84
2023/06/13 07:02:32;;;;;;;;;;;;;;;23.71;46.45;-18663.47;5059986;28;19921;-84
2023/06/13 07:04:58;;;;;;;;;;;;;;;23.82;46.41;-18666.47;5058971;28;19939;-85
2023/06/13 07:07:23;;;;;;;;;;;;;;;24.00;46.26;-18671.06;5059657;28;19924;-84
2023/06/13 07:09:48;;;;;;;;;;;;;;;24.16;45.63;-18675.28;5054578;28;19970;-84
2023/06/13 07:12:14;;;;;;;;;;;;;;;24.01;44.41;-18671.47;5059861;28;19921;-84
2023/06/13 07:14:39;;;;;;;;;;;;;;;24.21;45.22;-18676.63;5037294;28;19999;-85
2023/06/13 07:17:05;;;;;;;;;;;;;;;24.46;43.60;-18683.41;5064900;28;19971;-84
2023/06/13 07:19:30;;;;;;;;;;;;;;;24.60;42.88;-18686.94;5056135;28;19970;-84
2023/06/13 07:21:55;;;;;;;;;;;;;;;24.75;43.50;-18691.00;5055717;28;19979;-85
2023/06/13 07:24:20;;;;;;;;;;;;;;;24.90;41.62;-18695.06;5057211;28;20394;-85
2023/06/13 07:26:46;;;;;;;;;;;;;;;25.03;41.35;-18698.31;5040762;28;20516;-84
2023/06/13 07:29:11;;;;;;;;;;;;;;;25.23;40.95;-18703.59;5047863;28;19924;-84
2023/06/13 07:31:36;;;;;;;;;;;;;;;25.27;40.52;-18704.66;5041141;28;20218;-85
2023/06/13 07:34:01;;;;;;;;;;;;;;;25.26;39.58;-18704.41;5046465;28;19925;-84
2023/06/13 07:36:27;;;;;;;;;;;;;;;25.40;39.92;-18708.19;5057028;28;20354;-84
2023/06/13 07:38:52;;;;;;;;;;;;;;;25.60;39.65;-18713.59;5058769;28;19924;-84
2023/06/13 07:41:17;;;;;;;;;;;;;;;25.80;38.52;-18718.75;5054957;28;19946;-86
2023/06/13 07:43:43;;;;;;;;;;;;;;;25.94;38.02;-18722.53;5059657;28;19921;-85
2023/06/13 07:46:08;;;;;;;;;;;;;;;26.09;38.01;-18726.44;5064252;28;19949;-85
2023/06/13 07:48:33;;;;;;;;;;;;;;;26.14;37.64;-18727.81;5060215;28;19978;-85
2023/06/13 07:50:58;;;;;;;;;;;;;;;26.15;36.63;-18728.06;5054622;28;19920;-84
2023/06/13 07:53:23;;;;;;;;;;;;;;;26.15;36.28;-18727.94;5057826;28;19921;-85
2023/06/13 07:55:49;;;;;;;;;;;;;;;26.20;36.73;-18729.44;5047997;28;19936;-85
2023/06/13 07:58:14;;;;;;;;;;;;;;;26.25;36.77;-18730.66;5037652;28;19921;-84
2023/06/13 08:00:40;;;;;;;;;;;;;;;26.26;36.79;-18730.91;5047415;28;20563;-85
2023/06/13 08:03:05;;;;;;;;;;;;;;;26.40;36.16;-18734.56;5058797;28;20011;-85
2023/06/13 08:05:31;;;;;;;;;;;;;;;26.47;35.68;-18736.59;5060693;28;20311;-84
2023/06/13 08:07:57;;;;;;;;;;;;;;;26.68;35.84;-18742.13;5052613;28;20353;-85
2023/06/13 08:10:23;;;;;;;;;;;;;;;26.80;35.55;-18745.25;5059593;28;20177;-85
2023/06/13 08:12:48;;;;;;;;;;;;;;;26.74;34.58;-18743.75;5052220;28;19921;-85
2023/06/13 08:15:13;;;;;;;;;;;;;;;26.87;34.33;-18747.00;5058485;28;19921;-85
2023/06/13 08:17:41;;;;;;;;;;;;;;;26.76;33.96;-18744.16;5051819;28;19920;-87
2023/06/13 08:20:08;;;;;;;;;;;;;;;26.81;33.54;-18745.50;5060867;28;20001;-85
2023/06/13 08:22:33;;;;;;;;;;;;;;;26.78;34.15;-18744.69;5061303;28;19999;-86
2023/06/13 08:24:58;;;;;;;;;;;;;;;26.92;34.12;-18748.47;5057690;28;20019;-85
2023/06/13 08:27:24;;;;;;;;;;;;;;;27.01;33.95;-18750.78;5048767;28;19974;-85
2023/06/13 08:29:50;;;;;;;;;;;;;;;27.11;33.41;-18753.47;5056472;28;19920;-85
2023/06/13 08:32:15;;;;;;;;;;;;;;;27.01;33.06;-18750.91;5055188;28;19928;-85
2023/06/13 08:34:40;;;;;;;;;;;;;;;27.12;33.15;-18753.75;5048433;28;19928;-85
2023/06/13 08:37:06;;;;;;;;;;;;;;;27.28;32.91;-18757.81;5055421;28;20452;-85
2023/06/13 08:39:31;;;;;;;;;;;;;;;27.27;32.69;-18757.53;5038761;28;19921;-85
2023/06/13 08:41:56;;;;;;;;;;;;;;;27.26;31.97;-18757.28;5059985;28;19920;-85
2023/06/13 08:44:22;;;;;;;;;;;;;;;27.36;31.96;-18760.09;5039364;28;20054;-85
2023/06/13 08:46:47;;;;;;;;;;;;;;;27.45;31.77;-18762.53;5060095;28;20315;-85
2023/06/13 08:49:12;;;;;;;;;;;;;;;27.53;31.63;-18764.56;5050841;28;20055;-85
2023/06/13 08:51:38;;;;;;;;;;;;;;;27.61;31.54;-18766.72;5045704;28;19921;-85
2023/06/13 08:54:04;;;;;;;;;;;;;;;27.64;31.10;-18767.38;5051917;28;20111;-85
2023/06/13 08:56:33;;;;;;;;;;;;;;;27.55;31.84;-18764.97;5053595;28;20422;-85
2023/06/13 08:59:08;;;;;;;;;;;;;;;27.60;32.48;-18766.44;5061297;28;20031;-85
2023/06/13 09:01:34;;;;;;;;;;;;;;;27.86;31.94;-18773.19;5063265;28;20146;-85
2023/06/13 09:04:00;;;;;;;;;;;;;;;27.85;30.62;-18772.94;5055769;28;20306;-85
2023/06/13 09:06:26;;;;;;;;;;;;;;;28.10;31.25;-18779.53;5053338;28;19928;-85
2023/06/13 09:08:52;;;;;;;;;;;;;;;28.04;30.59;-18778.06;5056041;28;19940;-85
2023/06/13 09:11:19;;;;;;;;;;;;;;;28.08;31.87;-18779.00;5057120;28;20411;-84
2023/06/13 09:13:44;;;;;;;;;;;;;;;28.03;30.44;-18777.78;5057904;28;19920;-85
2023/06/13 09:16:10;;;;;;;;;;;;;;;28.19;31.38;-18781.84;5050652;28;20004;-85
2023/06/13 09:18:39;;;;;;;;;;;;;;;28.16;30.73;-18781.16;5056246;28;19928;-85
2023/06/13 09:21:04;;;;;;;;;;;;;;;28.24;31.31;-18783.31;5053483;28;19928;-85
2023/06/13 09:23:31;;;;;;;;;;;;;;;28.24;30.60;-18783.31;5061306;28;19948;-85
2023/06/13 09:25:58;;;;;;;;;;;;;;;28.33;29.24;-18785.59;5055312;28;19929;-88
2023/06/13 09:28:27;;;;;;;;;;;;;;;28.25;30.16;-18783.44;5061065;28;19956;-85
2023/06/13 09:30:52;;;;;;;;;;;;;;;28.42;29.67;-18788.03;5056191;28;19974;-85
2023/06/13 09:33:17;;;;;;;;;;;;;;;28.40;29.77;-18787.50;5059540;28;19921;-85
2023/06/13 09:35:42;;;;;;;;;;;;;;;28.62;29.32;-18793.28;5044147;28;19925;-85
2023/06/13 09:38:12;;;;;;;;;;;;;;;28.52;30.05;-18790.75;5052740;28;19984;-85
2023/06/13 09:40:37;;;;;;;;;;;;;;;28.73;30.27;-18796.13;5054756;28;20395;-85
2023/06/13 09:43:03;;;;;;;;;;;;;;;28.90;29.80;-18800.56;5052467;28;19931;-85
2023/06/13 09:45:29;;;;;;;;;;;;;;;28.88;29.36;-18800.16;5054459;28;19924;-85
2023/06/13 09:47:54;;;;;;;;;;;;;;;28.84;29.08;-18799.09;5052837;28;20293;-85
2023/06/13 09:50:21;;;;;;;;;;;;;;;28.95;29.53;-18801.94;5053511;28;19921;-85
2023/06/13 09:52:47;;;;;;;;;;;;;;;28.94;28.83;-18801.78;5055650;28;20133;-85
2023/06/13 09:55:12;;;;;;;;;;;;;;;28.88;29.55;-18800.16;5055034;28;19921;-85
2023/06/13 09:57:37;;;;;;;;;;;;;;;28.91;29.88;-18800.97;5040770;28;20015;-85
2023/06/13 10:00:06;;;;;;;;;;;;;;;28.90;28.79;-18800.56;5057953;28;19932;-85
2023/06/13 10:02:32;;;;;;;;;;;;;;;28.86;28.95;-18799.50;5053662;28;19959;-85
2023/06/13 10:04:57;;;;;;;;;;;;;;;28.88;28.92;-18800.03;5050896;28;20579;-85
2023/06/13 10:07:23;;;;;;;;;;;;;;;28.93;29.03;-18801.53;5055316;28;20291;-85
2023/06/13 10:09:48;;;;;;;;;;;;;;;29.02;29.52;-18803.81;5028403;28;20032;-85
2023/06/13 10:12:23;;;;;;;;;;;;;;;28.94;29.30;-18801.66;5055859;28;19932;-85
2023/06/13 10:14:56;;;;;;;;;;;;;;;28.97;28.79;-18802.59;5036698;28;19925;-85
2023/06/13 10:17:22;;;;;;;;;;;;;;;29.05;29.23;-18804.50;5042695;28;20379;-85
2023/06/13 10:19:51;;;;;;;;;;;;;;;29.17;29.01;-18807.72;5054149;28;19928;-85
2023/06/13 10:22:17;;;;;;;;;;;;;;;28.99;29.02;-18803.13;5056327;28;19924;-85
2023/06/13 10:24:44;;;;;;;;;;;;;;;28.88;30.65;-18800.16;5044395;28;19924;-85
2023/06/13 10:27:49;;;;;;;;;;;;;;;;;;;;;
2023/06/13 10:30:14;;;;;;;;;;;;;;;29.47;29.95;-18815.66;5036814;28;19931;-85
2023/06/13 10:32:50;;;;;;;;;;;;;;;29.52;29.19;-18816.88;5073814;28;20173;-85
2023/06/13 10:35:38;;;;;;;;;;;;;;;29.57;29.39;-18818.34;5057427;28;20011;-85
2023/06/13 10:38:37;;;;;;;;;;;;;;;29.33;29.45;-18811.91;5049193;28;19952;-85
2023/06/13 10:41:16;;;;;;;;;;;;;;;29.35;29.20;-18812.56;5068184;28;19920;-85
2023/06/13 10:43:46;;;;;;;;;;;;;;;29.59;29.51;-18818.75;5080073;28;19924;-85
2023/06/13 10:46:13;;;;;;;;;;;;;;;29.35;28.83;-18812.56;5083486;28;19925;-86
2023/06/13 10:48:50;;;;;;;;;;;;;;;29.48;28.87;-18815.81;5064001;28;20302;-85
2023/06/13 10:51:22;;;;;;;;;;;;;;;29.55;29.33;-18817.81;5070008;28;19921;-85
2023/06/13 10:54:06;;;;;;;;;;;;;;;29.41;28.69;-18814.19;5069247;28;19916;-85
2023/06/13 10:56:32;;;;;;;;;;;;;;;29.41;28.15;-18814.06;5025577;28;20272;-85
2023/06/13 11:05:26;;;;;;;;;;;;;;;29.74;28.04;-18822.66;5014317;28;19968;-86
2023/06/13 11:07:53;;;;;;;;;;;;;;;29.73;27.61;-18822.41;5062436;28;19924;-85
2023/06/13 11:10:19;;;;;;;;;;;;;;;29.63;28.50;-18819.84;5064283;28;19924;-85
2023/06/13 11:12:44;;;;;;;;;;;;;;;29.78;28.45;-18823.88;5070572;28;19916;-85
2023/06/13 11:15:20;;;;;;;;;;;;;;;29.90;28.05;-18827.13;5077451;28;20302;-85
2023/06/13 11:18:03;;;;;;;;;;;;;;;29.85;26.88;-18825.78;5065673;28;19917;-86
2023/06/13 11:20:30;;;;;;;;;;;;;;;29.89;27.41;-18826.72;5071439;28;19917;-86
2023/06/13 11:22:56;;;;;;;;;;;;;;;30.01;27.52;-18829.81;5068882;28;20396;-86
2023/06/13 11:25:21;;;;;;;;;;;;;;;30.08;27.57;-18831.69;5072062;28;19925;-85
2023/06/13 11:27:46;;;;;;;;;;;;;;;30.17;27.32;-18834.09;5050690;28;20494;-85
2023/06/13 11:30:12;;;;;;;;;;;;;;;30.20;26.94;-18834.78;5046825;28;20284;-86
2023/06/13 11:32:38;;;;;;;;;;;;;;;30.28;27.22;-18837.06;5063961;28;19923;-86
2023/06/13 11:35:06;;;;;;;;;;;;;;;30.25;26.73;-18836.28;5065261;28;20004;-86
2023/06/13 11:37:43;;;;;;;;;;;;;;;30.30;26.90;-18837.47;5058851;28;19944;-86
2023/06/13 11:40:11;;;;;;;;;;;;;;;30.30;26.41;-18837.63;5058460;28;19923;-85
2023/06/13 11:42:37;;;;;;;;;;;;;;;30.17;27.22;-18833.97;5052277;28;19920;-85
2023/06/13 11:45:02;;;;;;;;;;;;;;;30.15;27.01;-18833.56;5044466;28;20052;-86
2023/06/13 11:47:27;;;;;;;;;;;;;;;30.30;26.75;-18837.47;5043464;28;20405;-86
2023/06/13 11:49:53;;;;;;;;;;;;;;;30.37;26.82;-18839.22;5047296;28;19917;-86
2023/06/13 11:52:18;;;;;;;;;;;;;;;30.32;26.72;-18838.16;5040622;28;19918;-85
2023/06/13 11:54:47;;;;;;;;;;;;;;;30.41;26.92;-18840.31;5009272;28;19967;-85
2023/06/13 11:57:12;;;;;;;;;;;;;;;30.41;26.36;-18840.31;5024826;28;19936;-85
2023/06/13 11:59:39;;;;;;;;;;;;;;;30.55;27.15;-18844.06;5030231;28;20426;-85
2023/06/13 12:08:07;;;;;;;;;;;;;;;30.74;25.76;-18849.03;5064162;23;19925;-78
2023/06/13 12:10:33;;;;;;;;;;;;;;;30.73;25.65;-18848.91;5066867;28;20062;-79
2023/06/13 12:12:58;;;;;;;;;;;;;;;30.43;25.92;-18840.84;5053935;28;19929;-79
2023/06/13 12:15:27;;;;;;;;;;;;;;;30.90;26.54;-18853.34;5057043;28;19932;-79
2023/06/13 12:18:00;;;;;;;;;;;;;;;31.12;26.08;-18859.00;5064196;28;19920;-78
2023/06/13 12:20:26;;;;;;;;;;;;;;;31.13;25.60;-18859.41;5058690;28;19927;-79
2023/06/13 12:22:58;;;;;;;;;;;;;;;31.13;25.47;-18859.41;5063574;28;19928;-78
2023/06/13 12:25:25;;;;;;;;;;;;;;;31.01;25.99;-18856.31;5055900;28;19929;-79
2023/06/13 12:27:51;;;;;;;;;;;;;;;31.07;26.53;-18857.66;5061980;28;19924;-78
2023/06/13 12:30:17;;;;;;;;;;;;;;;31.05;25.91;-18857.25;5062111;28;19921;-78
2023/06/13 12:32:43;;;;;;;;;;;;;;;30.99;26.28;-18855.63;5070548;28;19963;-78
2023/06/13 12:35:09;;;;;;;;;;;;;;;30.89;25.61;-18853.09;5068961;28;20371;-78
2023/06/13 12:37:37;;;;;;;;;;;;;;;31.06;26.00;-18857.50;5071202;28;19925;-78
2023/06/13 12:40:09;;;;;;;;;;;;;;;30.31;27.93;-18837.88;5072181;28;19916;-78
2023/06/13 12:42:35;;;;;;;;;;;;;;;31.05;25.91;-18857.13;5062260;28;19920;-78
2023/06/13 12:45:00;;;;;;;;;;;;;;;30.89;25.95;-18852.94;5071019;28;20342;-78
2023/06/13 12:47:26;;;;;;;;;;;;;;;30.82;26.30;-18851.19;5072941;28;19952;-78